sensor_id;sensor_type;location;lat;lon;timestamp;temperature;humidity
59148;DHT22;44930;52.878;6.168;2022-11-15T00:02:08;7.40;99.90
59148;DHT22;44930;52.878;6.168;2022-11-15T00:04:33;7.50;99.90
59148;DHT22;44930;52.878;6.168;2022-11-15T00:06:59;7.50;99.90
59148;DHT22;44930;52.878;6.168;2022-11-15T00:11:51;7.50;99.90
59148;DHT22;44930;52.878;6.168;2022-11-15T00:14:17;7.50;99.90
59148;DHT22;44930;52.878;6.168;2022-11-15T00:16:43;7.60;99.90
59148;DHT22;44930;52.878;6.168;2022-11-15T00:19:08;7.60;99.90
59148;DHT22;44930;52.878;6.168;2022-11-15T00:21:34;7.60;99.90
59148;DHT22;44930;52.878;6.168;2022-11-15T00:24:00;7.60;99.90
59148;DHT22;44930;52.878;6.168;2022-11-15T00:28:52;7.50;99.90
59148;DHT22;44930;52.878;6.168;2022-11-15T00:31:18;7.60;99.90
59148;DHT22;44930;52.878;6.168;2022-11-15T00:33:44;7.50;99.90
59148;DHT22;44930;52.878;6.168;2022-11-15T00:36:10;7.50;99.90
59148;DHT22;44930;52.878;6.168;2022-11-15T00:38:38;7.60;99.90
59148;DHT22;44930;52.878;6.168;2022-11-15T00:41:05;7.80;99.90
59148;DHT22;44930;52.878;6.168;2022-11-15T00:43:31;7.50;99.90
59148;DHT22;44930;52.878;6.168;2022-11-15T00:45:57;7.50;99.90
59148;DHT22;44930;52.878;6.168;2022-11-15T00:48:23;7.50;99.90
59148;DHT22;44930;52.878;6.168;2022-11-15T00:50:49;7.40;99.90
59148;DHT22;44930;52.878;6.168;2022-11-15T00:55:41;7.50;99.90
59148;DHT22;44930;52.878;6.168;2022-11-15T00:58:07;7.40;99.90
59148;DHT22;44930;52.878;6.168;2022-11-15T01:00:33;7.40;99.90
59148;DHT22;44930;52.878;6.168;2022-11-15T01:03:00;7.30;99.90
59148;DHT22;44930;52.878;6.168;2022-11-15T01:05:25;7.30;99.90
59148;DHT22;44930;52.878;6.168;2022-11-15T01:07:52;7.40;99.90
59148;DHT22;44930;52.878;6.168;2022-11-15T01:10:18;7.20;99.90
59148;DHT22;44930;52.878;6.168;2022-11-15T01:12:44;7.30;99.90
59148;DHT22;44930;52.878;6.168;2022-11-15T01:15:09;7.30;99.90
59148;DHT22;44930;52.878;6.168;2022-11-15T01:17:35;7.10;99.90
59148;DHT22;44930;52.878;6.168;2022-11-15T01:20:00;7.20;99.90
59148;DHT22;44930;52.878;6.168;2022-11-15T01:22:26;7.30;99.90
59148;DHT22;44930;52.878;6.168;2022-11-15T01:24:51;7.30;99.90
59148;DHT22;44930;52.878;6.168;2022-11-15T01:27:17;7.30;99.90
59148;DHT22;44930;52.878;6.168;2022-11-15T01:29:43;7.20;99.90
59148;DHT22;44930;52.878;6.168;2022-11-15T01:32:08;7.30;99.90
59148;DHT22;44930;52.878;6.168;2022-11-15T01:34:34;7.30;99.90
59148;DHT22;44930;52.878;6.168;2022-11-15T01:36:59;7.20;99.90
59148;DHT22;44930;52.878;6.168;2022-11-15T01:39:25;7.30;99.90
59148;DHT22;44930;52.878;6.168;2022-11-15T01:47:06;7.30;99.90
59148;DHT22;44930;52.878;6.168;2022-11-15T01:49:35;7.20;99.90
59148;DHT22;44930;52.878;6.168;2022-11-15T01:52:04;7.00;99.90
59148;DHT22;44930;52.878;6.168;2022-11-15T01:54:31;7.20;99.90
59148;DHT22;44930;52.878;6.168;2022-11-15T01:57:05;7.10;99.90
59148;DHT22;44930;52.878;6.168;2022-11-15T01:59:32;7.20;99.90
59148;DHT22;44930;52.878;6.168;2022-11-15T02:01:58;7.20;99.90
59148;DHT22;44930;52.878;6.168;2022-11-15T02:04:26;7.10;99.90
59148;DHT22;44930;52.878;6.168;2022-11-15T02:06:53;7.10;99.90
59148;DHT22;44930;52.878;6.168;2022-11-15T02:09:19;7.20;99.90
59148;DHT22;44930;52.878;6.168;2022-11-15T02:11:45;7.20;99.90
59148;DHT22;44930;52.878;6.168;2022-11-15T02:14:13;7.30;99.90
59148;DHT22;44930;52.878;6.168;2022-11-15T02:17:06;6.90;99.90
59148;DHT22;44930;52.878;6.168;2022-11-15T02:19:40;7.50;99.90
59148;DHT22;44930;52.878;6.168;2022-11-15T02:25:36;7.10;99.90
59148;DHT22;44930;52.878;6.168;2022-11-15T02:33:25;7.40;99.90
59148;DHT22;44930;52.878;6.168;2022-11-15T02:36:01;7.30;99.90
59148;DHT22;44930;52.878;6.168;2022-11-15T02:38:47;7.60;99.90
59148;DHT22;44930;52.878;6.168;2022-11-15T02:41:21;7.40;99.90
59148;DHT22;44930;52.878;6.168;2022-11-15T02:43:55;7.70;99.90
59148;DHT22;44930;52.878;6.168;2022-11-15T02:46:23;7.50;99.90
59148;DHT22;44930;52.878;6.168;2022-11-15T02:49:12;7.50;99.90
59148;DHT22;44930;52.878;6.168;2022-11-15T02:51:40;7.50;99.90
59148;DHT22;44930;52.878;6.168;2022-11-15T02:54:05;7.80;99.90
59148;DHT22;44930;52.878;6.168;2022-11-15T02:56:31;7.60;99.90
59148;DHT22;44930;52.878;6.168;2022-11-15T03:06:55;7.80;99.90
59148;DHT22;44930;52.878;6.168;2022-11-15T03:09:42;7.60;99.90
59148;DHT22;44930;52.878;6.168;2022-11-15T03:14:59;7.60;99.90
59148;DHT22;44930;52.878;6.168;2022-11-15T03:17:34;7.50;99.90
59148;DHT22;44930;52.878;6.168;2022-11-15T03:20:04;7.80;99.90
59148;DHT22;44930;52.878;6.168;2022-11-15T03:22:35;7.80;99.90
59148;DHT22;44930;52.878;6.168;2022-11-15T03:25:04;7.50;99.90
59148;DHT22;44930;52.878;6.168;2022-11-15T03:27:35;7.80;99.90
59148;DHT22;44930;52.878;6.168;2022-11-15T03:30:05;7.90;99.90
59148;DHT22;44930;52.878;6.168;2022-11-15T03:32:35;8.30;99.90
59148;DHT22;44930;52.878;6.168;2022-11-15T03:35:11;7.80;99.90
59148;DHT22;44930;52.878;6.168;2022-11-15T03:37:53;8.10;99.90
59148;DHT22;44930;52.878;6.168;2022-11-15T03:40:37;7.90;99.90
59148;DHT22;44930;52.878;6.168;2022-11-15T03:43:18;7.90;99.90
59148;DHT22;44930;52.878;6.168;2022-11-15T03:46:07;7.70;99.90
59148;DHT22;44930;52.878;6.168;2022-11-15T03:48:43;8.00;99.90
59148;DHT22;44930;52.878;6.168;2022-11-15T03:53:36;8.00;99.90
59148;DHT22;44930;52.878;6.168;2022-11-15T03:56:01;8.00;99.90
59148;DHT22;44930;52.878;6.168;2022-11-15T03:58:27;8.10;99.90
59148;DHT22;44930;52.878;6.168;2022-11-15T04:00:53;8.00;99.90
59148;DHT22;44930;52.878;6.168;2022-11-15T04:03:18;8.20;99.90
59148;DHT22;44930;52.878;6.168;2022-11-15T04:05:44;8.10;99.90
59148;DHT22;44930;52.878;6.168;2022-11-15T04:08:09;8.20;99.90
59148;DHT22;44930;52.878;6.168;2022-11-15T04:10:35;8.30;99.90
59148;DHT22;44930;52.878;6.168;2022-11-15T04:13:02;8.20;99.90
59148;DHT22;44930;52.878;6.168;2022-11-15T04:17:56;8.20;99.90
59148;DHT22;44930;52.878;6.168;2022-11-15T04:20:24;8.20;99.90
59148;DHT22;44930;52.878;6.168;2022-11-15T04:23:13;8.20;99.90
59148;DHT22;44930;52.878;6.168;2022-11-15T04:25:59;8.30;99.90
59148;DHT22;44930;52.878;6.168;2022-11-15T04:28:26;8.20;99.90
59148;DHT22;44930;52.878;6.168;2022-11-15T04:30:52;8.40;99.90
59148;DHT22;44930;52.878;6.168;2022-11-15T04:33:17;8.40;99.90
59148;DHT22;44930;52.878;6.168;2022-11-15T04:35:43;8.30;99.90
59148;DHT22;44930;52.878;6.168;2022-11-15T04:38:10;8.40;99.90
59148;DHT22;44930;52.878;6.168;2022-11-15T04:40:37;8.60;99.90
59148;DHT22;44930;52.878;6.168;2022-11-15T04:43:03;8.60;99.90
59148;DHT22;44930;52.878;6.168;2022-11-15T04:45:28;8.60;99.90
59148;DHT22;44930;52.878;6.168;2022-11-15T04:47:54;8.70;99.90
59148;DHT22;44930;52.878;6.168;2022-11-15T04:50:20;8.60;99.90
59148;DHT22;44930;52.878;6.168;2022-11-15T04:52:53;8.60;99.90
59148;DHT22;44930;52.878;6.168;2022-11-15T04:57:45;8.70;99.90
59148;DHT22;44930;52.878;6.168;2022-11-15T05:00:13;8.70;99.90
59148;DHT22;44930;52.878;6.168;2022-11-15T05:02:39;8.80;99.90
59148;DHT22;44930;52.878;6.168;2022-11-15T05:05:24;8.80;99.90
59148;DHT22;44930;52.878;6.168;2022-11-15T05:07:50;8.90;99.90
59148;DHT22;44930;52.878;6.168;2022-11-15T05:10:15;8.90;99.90
59148;DHT22;44930;52.878;6.168;2022-11-15T05:12:41;8.70;99.90
59148;DHT22;44930;52.878;6.168;2022-11-15T05:15:07;8.90;99.90
59148;DHT22;44930;52.878;6.168;2022-11-15T05:17:33;9.00;99.90
59148;DHT22;44930;52.878;6.168;2022-11-15T05:19:58;9.00;99.90
59148;DHT22;44930;52.878;6.168;2022-11-15T05:22:24;9.10;99.90
59148;DHT22;44930;52.878;6.168;2022-11-15T05:24:49;9.00;99.90
59148;DHT22;44930;52.878;6.168;2022-11-15T05:29:41;9.10;99.90
59148;DHT22;44930;52.878;6.168;2022-11-15T05:32:08;9.20;99.90
59148;DHT22;44930;52.878;6.168;2022-11-15T05:34:34;9.20;99.90
59148;DHT22;44930;52.878;6.168;2022-11-15T05:37:00;9.20;99.90
59148;DHT22;44930;52.878;6.168;2022-11-15T05:39:26;9.20;99.90
59148;DHT22;44930;52.878;6.168;2022-11-15T05:42:01;9.30;99.90
59148;DHT22;44930;52.878;6.168;2022-11-15T05:44:28;9.30;99.90
59148;DHT22;44930;52.878;6.168;2022-11-15T05:46:54;9.30;99.90
59148;DHT22;44930;52.878;6.168;2022-11-15T05:49:24;9.30;99.90
59148;DHT22;44930;52.878;6.168;2022-11-15T05:51:53;9.40;99.90
59148;DHT22;44930;52.878;6.168;2022-11-15T05:54:20;9.40;99.90
59148;DHT22;44930;52.878;6.168;2022-11-15T06:04:05;9.50;99.90
59148;DHT22;44930;52.878;6.168;2022-11-15T06:06:31;9.50;99.90
59148;DHT22;44930;52.878;6.168;2022-11-15T06:08:56;9.50;99.90
59148;DHT22;44930;52.878;6.168;2022-11-15T06:11:22;9.40;99.90
59148;DHT22;44930;52.878;6.168;2022-11-15T06:13:47;9.60;99.90
59148;DHT22;44930;52.878;6.168;2022-11-15T06:16:13;9.60;99.90
59148;DHT22;44930;52.878;6.168;2022-11-15T06:18:38;9.50;99.90
59148;DHT22;44930;52.878;6.168;2022-11-15T06:21:04;9.50;99.90
59148;DHT22;44930;52.878;6.168;2022-11-15T06:26:01;9.70;99.90
59148;DHT22;44930;52.878;6.168;2022-11-15T06:28:31;9.90;99.90
59148;DHT22;44930;52.878;6.168;2022-11-15T06:31:09;9.70;99.90
59148;DHT22;44930;52.878;6.168;2022-11-15T06:33:36;9.80;99.90
59148;DHT22;44930;52.878;6.168;2022-11-15T06:36:03;9.50;99.90
59148;DHT22;44930;52.878;6.168;2022-11-15T06:40:55;10.00;99.90
59148;DHT22;44930;52.878;6.168;2022-11-15T06:45:52;9.70;99.90
59148;DHT22;44930;52.878;6.168;2022-11-15T06:48:17;9.80;99.90
59148;DHT22;44930;52.878;6.168;2022-11-15T06:50:43;9.90;99.90
59148;DHT22;44930;52.878;6.168;2022-11-15T06:53:15;9.90;99.90
59148;DHT22;44930;52.878;6.168;2022-11-15T06:55:40;9.90;99.90
59148;DHT22;44930;52.878;6.168;2022-11-15T06:58:06;9.90;99.90
59148;DHT22;44930;52.878;6.168;2022-11-15T07:00:32;9.80;99.90
59148;DHT22;44930;52.878;6.168;2022-11-15T07:03:00;9.90;99.90
59148;DHT22;44930;52.878;6.168;2022-11-15T07:05:26;9.90;99.90
59148;DHT22;44930;52.878;6.168;2022-11-15T07:07:53;10.00;99.90
59148;DHT22;44930;52.878;6.168;2022-11-15T07:10:19;9.90;99.90
59148;DHT22;44930;52.878;6.168;2022-11-15T07:12:47;9.90;99.90
59148;DHT22;44930;52.878;6.168;2022-11-15T07:15:14;10.00;99.90
59148;DHT22;44930;52.878;6.168;2022-11-15T07:20:05;10.00;99.90
59148;DHT22;44930;52.878;6.168;2022-11-15T07:22:31;10.00;99.90
59148;DHT22;44930;52.878;6.168;2022-11-15T07:24:57;10.00;99.90
59148;DHT22;44930;52.878;6.168;2022-11-15T07:27:22;10.00;99.90
59148;DHT22;44930;52.878;6.168;2022-11-15T07:29:48;9.90;99.90
59148;DHT22;44930;52.878;6.168;2022-11-15T07:32:13;10.00;99.90
59148;DHT22;44930;52.878;6.168;2022-11-15T07:34:39;10.00;99.90
59148;DHT22;44930;52.878;6.168;2022-11-15T07:37:04;9.90;99.90
59148;DHT22;44930;52.878;6.168;2022-11-15T07:39:30;10.00;99.90
59148;DHT22;44930;52.878;6.168;2022-11-15T07:41:55;10.00;99.90
59148;DHT22;44930;52.878;6.168;2022-11-15T07:44:41;10.10;99.90
59148;DHT22;44930;52.878;6.168;2022-11-15T07:47:06;10.10;99.90
59148;DHT22;44930;52.878;6.168;2022-11-15T07:49:32;10.10;99.90
59148;DHT22;44930;52.878;6.168;2022-11-15T07:54:24;10.20;99.90
59148;DHT22;44930;52.878;6.168;2022-11-15T07:56:49;10.20;99.90
59148;DHT22;44930;52.878;6.168;2022-11-15T07:59:15;10.10;99.90
59148;DHT22;44930;52.878;6.168;2022-11-15T08:01:40;10.00;99.90
59148;DHT22;44930;52.878;6.168;2022-11-15T08:04:06;10.20;99.90
59148;DHT22;44930;52.878;6.168;2022-11-15T08:06:31;10.30;99.90
59148;DHT22;44930;52.878;6.168;2022-11-15T08:08:57;10.40;99.90
59148;DHT22;44930;52.878;6.168;2022-11-15T08:11:22;10.30;99.90
59148;DHT22;44930;52.878;6.168;2022-11-15T08:16:14;10.40;99.90
59148;DHT22;44930;52.878;6.168;2022-11-15T08:18:39;10.40;99.90
59148;DHT22;44930;52.878;6.168;2022-11-15T08:21:05;10.40;99.90
59148;DHT22;44930;52.878;6.168;2022-11-15T08:23:30;10.50;99.90
59148;DHT22;44930;52.878;6.168;2022-11-15T08:26:04;10.40;99.90
59148;DHT22;44930;52.878;6.168;2022-11-15T08:28:31;10.60;99.90
59148;DHT22;44930;52.878;6.168;2022-11-15T08:30:57;10.60;99.90
59148;DHT22;44930;52.878;6.168;2022-11-15T08:33:22;10.70;99.90
59148;DHT22;44930;52.878;6.168;2022-11-15T08:35:48;10.60;99.90
59148;DHT22;44930;52.878;6.168;2022-11-15T08:38:14;10.60;99.90
59148;DHT22;44930;52.878;6.168;2022-11-15T08:40:39;10.60;99.90
59148;DHT22;44930;52.878;6.168;2022-11-15T08:43:05;10.80;99.90
59148;DHT22;44930;52.878;6.168;2022-11-15T08:45:33;10.90;99.90
59148;DHT22;44930;52.878;6.168;2022-11-15T08:48:01;10.80;99.90
59148;DHT22;44930;52.878;6.168;2022-11-15T08:50:27;10.80;99.90
59148;DHT22;44930;52.878;6.168;2022-11-15T08:52:52;10.80;99.90
59148;DHT22;44930;52.878;6.168;2022-11-15T08:55:18;11.00;99.90
59148;DHT22;44930;52.878;6.168;2022-11-15T08:57:44;10.80;99.90
59148;DHT22;44930;52.878;6.168;2022-11-15T09:00:10;10.80;99.90
59148;DHT22;44930;52.878;6.168;2022-11-15T09:02:38;10.90;99.90
59148;DHT22;44930;52.878;6.168;2022-11-15T09:05:04;10.90;99.90
59148;DHT22;44930;52.878;6.168;2022-11-15T09:09:57;10.90;99.90
59148;DHT22;44930;52.878;6.168;2022-11-15T09:12:23;10.90;99.90
59148;DHT22;44930;52.878;6.168;2022-11-15T09:14:49;11.00;99.90
59148;DHT22;44930;52.878;6.168;2022-11-15T09:17:14;11.00;99.90
59148;DHT22;44930;52.878;6.168;2022-11-15T09:19:40;11.00;99.90
59148;DHT22;44930;52.878;6.168;2022-11-15T09:22:07;11.10;99.90
59148;DHT22;44930;52.878;6.168;2022-11-15T09:26:59;11.20;99.90
59148;DHT22;44930;52.878;6.168;2022-11-15T09:29:24;11.10;99.90
59148;DHT22;44930;52.878;6.168;2022-11-15T09:31:52;10.90;99.90
59148;DHT22;44930;52.878;6.168;2022-11-15T09:34:18;11.10;99.90
59148;DHT22;44930;52.878;6.168;2022-11-15T09:36:43;11.10;99.90
59148;DHT22;44930;52.878;6.168;2022-11-15T09:39:09;11.20;99.90
59148;DHT22;44930;52.878;6.168;2022-11-15T09:52:43;11.10;99.90
59148;DHT22;44930;52.878;6.168;2022-11-15T09:55:11;11.30;99.90
59148;DHT22;44930;52.878;6.168;2022-11-15T09:58:03;11.20;99.90
59148;DHT22;44930;52.878;6.168;2022-11-15T10:00:36;11.30;99.90
59148;DHT22;44930;52.878;6.168;2022-11-15T10:03:24;11.20;99.90
59148;DHT22;44930;52.878;6.168;2022-11-15T10:05:54;11.50;99.90
59148;DHT22;44930;52.878;6.168;2022-11-15T10:08:46;11.40;99.90
59148;DHT22;44930;52.878;6.168;2022-11-15T10:11:32;11.50;99.90
59148;DHT22;44930;52.878;6.168;2022-11-15T10:14:02;11.50;99.90
59148;DHT22;44930;52.878;6.168;2022-11-15T10:24:46;11.50;99.90
59148;DHT22;44930;52.878;6.168;2022-11-15T10:27:17;11.60;99.90
59148;DHT22;44930;52.878;6.168;2022-11-15T10:29:45;11.60;99.90
59148;DHT22;44930;52.878;6.168;2022-11-15T10:32:12;11.60;99.90
59148;DHT22;44930;52.878;6.168;2022-11-15T10:34:38;11.60;99.90
59148;DHT22;44930;52.878;6.168;2022-11-15T10:37:04;11.60;99.90
59148;DHT22;44930;52.878;6.168;2022-11-15T10:39:29;11.60;99.90
59148;DHT22;44930;52.878;6.168;2022-11-15T10:41:55;11.60;99.90
59148;DHT22;44930;52.878;6.168;2022-11-15T10:44:28;11.60;99.90
59148;DHT22;44930;52.878;6.168;2022-11-15T10:51:51;11.60;99.90
59148;DHT22;44930;52.878;6.168;2022-11-15T10:54:45;11.30;99.90
59148;DHT22;44930;52.878;6.168;2022-11-15T10:59:47;11.80;99.90
59148;DHT22;44930;52.878;6.168;2022-11-15T11:05:01;11.70;99.90
59148;DHT22;44930;52.878;6.168;2022-11-15T11:07:30;11.70;99.90
59148;DHT22;44930;52.878;6.168;2022-11-15T11:10:25;11.80;99.90
59148;DHT22;44930;52.878;6.168;2022-11-15T11:12:50;11.70;99.90
59148;DHT22;44930;52.878;6.168;2022-11-15T11:15:17;11.40;99.90
59148;DHT22;44930;52.878;6.168;2022-11-15T11:20:23;11.40;99.90
59148;DHT22;44930;52.878;6.168;2022-11-15T11:26:01;11.80;99.90
59148;DHT22;44930;52.878;6.168;2022-11-15T11:31:57;11.70;99.90
59148;DHT22;44930;52.878;6.168;2022-11-15T11:35:01;11.70;99.90
59148;DHT22;44930;52.878;6.168;2022-11-15T11:42:51;11.90;99.90
59148;DHT22;44930;52.878;6.168;2022-11-15T11:48:43;12.50;99.90
59148;DHT22;44930;52.878;6.168;2022-11-15T11:51:35;12.10;99.90
59148;DHT22;44930;52.878;6.168;2022-11-15T11:56:39;12.30;99.90
59148;DHT22;44930;52.878;6.168;2022-11-15T12:01:42;12.60;99.90
59148;DHT22;44930;52.878;6.168;2022-11-15T12:09:38;12.60;99.90
59148;DHT22;44930;52.878;6.168;2022-11-15T12:17:25;12.70;99.90
59148;DHT22;44930;52.878;6.168;2022-11-15T12:19:55;12.80;99.90
59148;DHT22;44930;52.878;6.168;2022-11-15T12:22:40;12.90;99.90
59148;DHT22;44930;52.878;6.168;2022-11-15T12:27:46;12.80;99.90
59148;DHT22;44930;52.878;6.168;2022-11-15T12:30:18;12.90;99.90
59148;DHT22;44930;52.878;6.168;2022-11-15T12:33:00;12.70;99.90
59148;DHT22;44930;52.878;6.168;2022-11-15T12:35:34;12.80;99.90
59148;DHT22;44930;52.878;6.168;2022-11-15T12:38:00;12.80;99.90
59148;DHT22;44930;52.878;6.168;2022-11-15T12:40:33;12.70;99.90
59148;DHT22;44930;52.878;6.168;2022-11-15T12:45:42;12.70;99.90
59148;DHT22;44930;52.878;6.168;2022-11-15T12:58:47;12.30;99.90
59148;DHT22;44930;52.878;6.168;2022-11-15T13:12:07;12.60;99.90
59148;DHT22;44930;52.878;6.168;2022-11-15T13:20:33;12.60;99.90
59148;DHT22;44930;52.878;6.168;2022-11-15T13:30:58;12.60;99.90
59148;DHT22;44930;52.878;6.168;2022-11-15T13:33:50;12.60;99.90
59148;DHT22;44930;52.878;6.168;2022-11-15T13:36:22;12.50;99.90
59148;DHT22;44930;52.878;6.168;2022-11-15T13:41:31;12.60;99.90
59148;DHT22;44930;52.878;6.168;2022-11-15T13:43:58;12.50;99.90
59148;DHT22;44930;52.878;6.168;2022-11-15T13:46:31;12.80;99.90
59148;DHT22;44930;52.878;6.168;2022-11-15T13:49:04;12.90;99.90
59148;DHT22;44930;52.878;6.168;2022-11-15T13:54:21;12.40;99.90
59148;DHT22;44930;52.878;6.168;2022-11-15T13:57:03;12.10;99.90
59148;DHT22;44930;52.878;6.168;2022-11-15T13:59:34;12.40;99.90
59148;DHT22;44930;52.878;6.168;2022-11-15T14:02:18;12.00;99.90
59148;DHT22;44930;52.878;6.168;2022-11-15T14:04:50;12.10;99.90
59148;DHT22;44930;52.878;6.168;2022-11-15T14:07:25;12.20;99.90
59148;DHT22;44930;52.878;6.168;2022-11-15T14:09:53;12.20;99.90
59148;DHT22;44930;52.878;6.168;2022-11-15T14:14:51;12.10;99.90
59148;DHT22;44930;52.878;6.168;2022-11-15T14:17:37;12.00;99.90
59148;DHT22;44930;52.878;6.168;2022-11-15T14:20:20;12.10;99.90
59148;DHT22;44930;52.878;6.168;2022-11-15T14:22:56;11.80;99.90
59148;DHT22;44930;52.878;6.168;2022-11-15T14:25:24;11.90;99.90
59148;DHT22;44930;52.878;6.168;2022-11-15T14:30:45;11.50;99.90
59148;DHT22;44930;52.878;6.168;2022-11-15T14:33:30;12.10;99.90
59148;DHT22;44930;52.878;6.168;2022-11-15T14:36:02;11.90;99.90
59148;DHT22;44930;52.878;6.168;2022-11-15T14:38:27;11.70;99.90
59148;DHT22;44930;52.878;6.168;2022-11-15T14:40:54;11.80;99.90
59148;DHT22;44930;52.878;6.168;2022-11-15T14:43:21;11.80;99.90
59148;DHT22;44930;52.878;6.168;2022-11-15T14:45:47;11.70;99.90
59148;DHT22;44930;52.878;6.168;2022-11-15T14:48:12;11.60;99.90
59148;DHT22;44930;52.878;6.168;2022-11-15T14:50:38;11.60;99.90
59148;DHT22;44930;52.878;6.168;2022-11-15T14:53:04;11.60;99.90
59148;DHT22;44930;52.878;6.168;2022-11-15T14:55:35;11.40;99.90
59148;DHT22;44930;52.878;6.168;2022-11-15T14:58:05;11.90;99.90
59148;DHT22;44930;52.878;6.168;2022-11-15T15:02:59;11.40;99.90
59148;DHT22;44930;52.878;6.168;2022-11-15T15:05:41;11.30;99.90
59148;DHT22;44930;52.878;6.168;2022-11-15T15:08:08;11.40;99.90
59148;DHT22;44930;52.878;6.168;2022-11-15T15:10:39;11.40;99.90
59148;DHT22;44930;52.878;6.168;2022-11-15T15:13:08;11.40;99.90
59148;DHT22;44930;52.878;6.168;2022-11-15T15:15:37;11.30;99.90
59148;DHT22;44930;52.878;6.168;2022-11-15T15:18:04;11.30;99.90
59148;DHT22;44930;52.878;6.168;2022-11-15T15:20:31;11.40;99.90
59148;DHT22;44930;52.878;6.168;2022-11-15T15:22:57;11.30;99.90
59148;DHT22;44930;52.878;6.168;2022-11-15T15:27:54;11.20;99.90
59148;DHT22;44930;52.878;6.168;2022-11-15T15:30:21;11.20;99.90
59148;DHT22;44930;52.878;6.168;2022-11-15T15:32:47;11.20;99.90
59148;DHT22;44930;52.878;6.168;2022-11-15T15:35:14;11.20;99.90
59148;DHT22;44930;52.878;6.168;2022-11-15T15:37:41;10.90;99.90
59148;DHT22;44930;52.878;6.168;2022-11-15T15:42:37;10.90;99.90
59148;DHT22;44930;52.878;6.168;2022-11-15T15:45:03;10.90;99.90
59148;DHT22;44930;52.878;6.168;2022-11-15T15:47:29;10.90;99.90
59148;DHT22;44930;52.878;6.168;2022-11-15T15:49:54;10.90;99.90
59148;DHT22;44930;52.878;6.168;2022-11-15T15:52:20;10.90;99.90
59148;DHT22;44930;52.878;6.168;2022-11-15T15:54:45;10.80;99.90
59148;DHT22;44930;52.878;6.168;2022-11-15T15:57:13;10.90;99.90
59148;DHT22;44930;52.878;6.168;2022-11-15T15:59:39;10.70;99.90
59148;DHT22;44930;52.878;6.168;2022-11-15T16:02:05;10.80;99.90
59148;DHT22;44930;52.878;6.168;2022-11-15T16:04:31;10.80;99.90
59148;DHT22;44930;52.878;6.168;2022-11-15T16:07:00;10.80;99.90
59148;DHT22;44930;52.878;6.168;2022-11-15T16:09:26;11.00;99.90
59148;DHT22;44930;52.878;6.168;2022-11-15T16:12:10;10.70;99.90
59148;DHT22;44930;52.878;6.168;2022-11-15T16:14:36;11.00;99.90
59148;DHT22;44930;52.878;6.168;2022-11-15T16:17:02;10.90;99.90
59148;DHT22;44930;52.878;6.168;2022-11-15T16:21:53;10.80;99.90
59148;DHT22;44930;52.878;6.168;2022-11-15T16:24:20;11.00;99.90
59148;DHT22;44930;52.878;6.168;2022-11-15T16:26:46;11.00;99.90
59148;DHT22;44930;52.878;6.168;2022-11-15T16:29:13;11.10;99.90
59148;DHT22;44930;52.878;6.168;2022-11-15T16:31:39;11.20;99.90
59148;DHT22;44930;52.878;6.168;2022-11-15T16:34:04;11.10;99.90
59148;DHT22;44930;52.878;6.168;2022-11-15T16:36:33;11.10;99.90
59148;DHT22;44930;52.878;6.168;2022-11-15T16:38:59;11.20;99.90
59148;DHT22;44930;52.878;6.168;2022-11-15T16:41:25;11.10;99.90
59148;DHT22;44930;52.878;6.168;2022-11-15T16:46:26;11.30;99.90
59148;DHT22;44930;52.878;6.168;2022-11-15T16:51:22;11.10;99.90
59148;DHT22;44930;52.878;6.168;2022-11-15T16:53:48;11.30;99.90
59148;DHT22;44930;52.878;6.168;2022-11-15T16:56:24;11.00;99.90
59148;DHT22;44930;52.878;6.168;2022-11-15T16:58:50;11.30;99.90
59148;DHT22;44930;52.878;6.168;2022-11-15T17:01:18;11.30;99.90
59148;DHT22;44930;52.878;6.168;2022-11-15T17:03:44;11.30;99.90
59148;DHT22;44930;52.878;6.168;2022-11-15T17:08:36;11.70;99.90
59148;DHT22;44930;52.878;6.168;2022-11-15T17:11:05;11.40;99.90
59148;DHT22;44930;52.878;6.168;2022-11-15T17:13:31;11.10;99.90
59148;DHT22;44930;52.878;6.168;2022-11-15T17:16:09;11.30;99.90
59148;DHT22;44930;52.878;6.168;2022-11-15T17:18:35;11.40;99.90
59148;DHT22;44930;52.878;6.168;2022-11-15T17:21:10;11.30;99.90
59148;DHT22;44930;52.878;6.168;2022-11-15T17:23:37;11.40;99.90
59148;DHT22;44930;52.878;6.168;2022-11-15T17:26:03;11.40;99.90
59148;DHT22;44930;52.878;6.168;2022-11-15T17:28:33;11.30;99.90
59148;DHT22;44930;52.878;6.168;2022-11-15T17:30:59;11.40;99.90
59148;DHT22;44930;52.878;6.168;2022-11-15T17:33:25;11.50;99.90
59148;DHT22;44930;52.878;6.168;2022-11-15T17:36:00;11.40;99.90
59148;DHT22;44930;52.878;6.168;2022-11-15T17:38:26;11.00;99.90
59148;DHT22;44930;52.878;6.168;2022-11-15T17:41:13;11.10;99.90
59148;DHT22;44930;52.878;6.168;2022-11-15T17:43:39;11.20;99.90
59148;DHT22;44930;52.878;6.168;2022-11-15T17:46:13;11.40;99.90
59148;DHT22;44930;52.878;6.168;2022-11-15T17:51:08;11.30;99.90
59148;DHT22;44930;52.878;6.168;2022-11-15T17:53:37;11.40;99.90
59148;DHT22;44930;52.878;6.168;2022-11-15T17:56:10;11.40;99.90
59148;DHT22;44930;52.878;6.168;2022-11-15T17:58:36;11.40;99.90
59148;DHT22;44930;52.878;6.168;2022-11-15T18:01:17;11.30;99.90
59148;DHT22;44930;52.878;6.168;2022-11-15T18:03:43;11.40;99.90
59148;DHT22;44930;52.878;6.168;2022-11-15T18:06:09;11.40;99.90
59148;DHT22;44930;52.878;6.168;2022-11-15T18:08:36;11.30;99.90
59148;DHT22;44930;52.878;6.168;2022-11-15T18:11:07;11.60;99.90
59148;DHT22;44930;52.878;6.168;2022-11-15T18:13:35;11.40;99.90
59148;DHT22;44930;52.878;6.168;2022-11-15T18:16:02;11.30;99.90
59148;DHT22;44930;52.878;6.168;2022-11-15T18:18:30;11.40;99.90
59148;DHT22;44930;52.878;6.168;2022-11-15T18:21:06;11.60;99.90
59148;DHT22;44930;52.878;6.168;2022-11-15T18:23:33;11.80;99.90
59148;DHT22;44930;52.878;6.168;2022-11-15T18:26:00;11.40;99.90
59148;DHT22;44930;52.878;6.168;2022-11-15T18:28:33;11.90;99.90
59148;DHT22;44930;52.878;6.168;2022-11-15T18:31:00;11.60;99.90
59148;DHT22;44930;52.878;6.168;2022-11-15T18:33:27;11.80;99.90
59148;DHT22;44930;52.878;6.168;2022-11-15T18:36:01;11.60;99.90
59148;DHT22;44930;52.878;6.168;2022-11-15T18:38:27;11.60;99.90
59148;DHT22;44930;52.878;6.168;2022-11-15T18:40:56;11.50;99.90
59148;DHT22;44930;52.878;6.168;2022-11-15T18:43:22;11.60;99.90
59148;DHT22;44930;52.878;6.168;2022-11-15T18:45:47;11.60;99.90
59148;DHT22;44930;52.878;6.168;2022-11-15T18:50:39;11.70;99.90
59148;DHT22;44930;52.878;6.168;2022-11-15T18:53:04;11.70;99.90
59148;DHT22;44930;52.878;6.168;2022-11-15T18:55:30;11.70;99.90
59148;DHT22;44930;52.878;6.168;2022-11-15T18:57:56;11.60;99.90
59148;DHT22;44930;52.878;6.168;2022-11-15T19:00:21;11.70;99.90
59148;DHT22;44930;52.878;6.168;2022-11-15T19:02:47;11.50;99.90
59148;DHT22;44930;52.878;6.168;2022-11-15T19:05:12;11.60;99.90
59148;DHT22;44930;52.878;6.168;2022-11-15T19:07:41;11.70;99.90
59148;DHT22;44930;52.878;6.168;2022-11-15T19:10:07;11.60;99.90
59148;DHT22;44930;52.878;6.168;2022-11-15T19:12:33;11.80;99.90
59148;DHT22;44930;52.878;6.168;2022-11-15T19:14:59;11.60;99.90